createdAt,value
2022-10-22T00:00:17.953Z,84.30
2022-10-22T00:02:45.401Z,53.22
2022-10-22T00:05:12.757Z,77.65
2022-10-22T00:07:40.662Z,65.65
2022-10-22T00:10:08.941Z,68.88
2022-10-22T00:12:36.146Z,59.65
2022-10-22T00:15:05.386Z,56.25
2022-10-22T00:17:32.778Z,43.88
2022-10-22T00:20:00.051Z,68.80
2022-10-22T00:22:27.175Z,56.15
2022-10-22T00:24:54.376Z,48.25
2022-10-22T00:27:21.983Z,50.08
2022-10-22T00:29:49.184Z,56.35
2022-10-22T00:32:16.457Z,51.53
2022-10-22T00:34:43.686Z,54.97
2022-10-22T00:37:11.218Z,46.45
2022-10-22T00:39:38.530Z,62.95
2022-10-22T00:42:05.786Z,59.00
2022-10-22T00:45:10.095Z,37.85
2022-10-22T00:47:41.626Z,40.90
2022-10-22T00:50:27.466Z,54.10
2022-10-22T00:52:56.485Z,58.95
2022-10-22T00:55:25.798Z,70.90
2022-10-22T00:57:58.249Z,55.15
2022-10-22T01:00:25.877Z,76.97
2022-10-22T01:02:54.524Z,50.20
2022-10-22T01:05:22.047Z,58.42
2022-10-22T01:07:52.424Z,63.08
2022-10-22T01:13:09.488Z,72.82
2022-10-22T01:15:54.277Z,74.55
2022-10-22T01:18:38.333Z,76.80
2022-10-22T01:21:38.272Z,69.90
2022-10-22T01:24:49.575Z,48.63
2022-10-22T01:27:25.779Z,92.22
2022-10-22T01:30:05.495Z,59.58
2022-10-22T01:32:40.294Z,84.35
2022-10-22T01:35:12.534Z,73.78
2022-10-22T01:37:51.814Z,83.65
2022-10-22T01:40:21.274Z,96.78
2022-10-22T01:42:58.653Z,68.87
2022-10-22T01:45:26.415Z,92.07
2022-10-22T01:48:02.537Z,74.45
2022-10-22T01:50:44.258Z,82.78
2022-10-22T01:53:35.586Z,83.07
2022-10-22T01:56:17.492Z,68.55
2022-10-22T01:59:09.397Z,80.35
2022-10-22T02:01:55.296Z,103.25
2022-10-22T02:04:43.039Z,94.47
2022-10-22T02:07:14.295Z,93.78
2022-10-22T02:09:44.207Z,73.97
2022-10-22T02:12:12.084Z,96.68
2022-10-22T02:14:43.445Z,97.10
2022-10-22T02:17:16.695Z,76.72
2022-10-22T02:19:51.864Z,106.20
2022-10-22T02:22:20.133Z,83.00
2022-10-22T02:24:49.817Z,81.07
2022-10-22T02:27:42.904Z,107.60
2022-10-22T02:30:11.153Z,110.80
2022-10-22T02:33:12.044Z,115.35
2022-10-22T02:35:42.146Z,88.07
2022-10-22T02:38:10.855Z,92.47
2022-10-22T02:40:38.537Z,138.80
2022-10-22T02:43:06.352Z,91.85
2022-10-22T02:45:35.015Z,97.40
2022-10-22T02:48:02.413Z,81.90
2022-10-22T02:50:29.812Z,97.68
2022-10-22T02:52:57.015Z,91.03
2022-10-22T02:55:24.386Z,69.13
2022-10-22T02:57:51.693Z,68.93
2022-10-22T03:00:19.343Z,104.20
2022-10-22T03:02:46.629Z,108.68
2022-10-22T03:05:13.855Z,136.40
2022-10-22T03:07:41.291Z,75.75
2022-10-22T03:10:09.347Z,123.43
2022-10-22T03:12:36.503Z,108.07
2022-10-22T03:15:04.418Z,160.45
2022-10-22T03:17:31.463Z,85.22
2022-10-22T03:19:58.574Z,123.82
2022-10-22T03:22:29.788Z,108.90
2022-10-22T03:25:01.031Z,98.90
2022-10-22T03:27:29.771Z,70.15
2022-10-22T03:29:58.258Z,84.75
2022-10-22T03:32:25.619Z,172.43
2022-10-22T03:34:52.868Z,125.50
2022-10-22T03:37:20.674Z,96.95
2022-10-22T03:39:48.409Z,106.85
2022-10-22T03:42:16.673Z,172.13
2022-10-22T03:44:44.386Z,116.85
2022-10-22T03:47:12.744Z,176.88
2022-10-22T03:49:39.900Z,98.00
2022-10-22T03:52:08.505Z,110.47
2022-10-22T03:57:05.984Z,135.27
2022-10-22T03:59:44.064Z,221.90
2022-10-22T04:02:13.057Z,127.97
2022-10-22T04:04:40.646Z,207.95
2022-10-22T04:07:08.516Z,215.73
2022-10-22T04:09:36.299Z,225.18
2022-10-22T04:12:05.894Z,173.63
2022-10-22T04:14:33.185Z,229.30
2022-10-22T04:17:00.374Z,103.38
2022-10-22T04:19:27.633Z,159.15
2022-10-22T04:21:54.823Z,92.90
2022-10-22T04:24:22.005Z,147.50
2022-10-22T04:26:49.303Z,137.10
2022-10-22T04:29:16.615Z,103.20
2022-10-22T04:31:43.953Z,99.95
2022-10-22T04:34:11.297Z,164.15
2022-10-22T04:36:38.419Z,161.63
2022-10-22T04:39:06.935Z,122.55
2022-10-22T04:41:36.855Z,107.20
2022-10-22T04:44:04.945Z,122.05
2022-10-22T04:46:34.448Z,201.23
2022-10-22T04:49:04.304Z,194.67
2022-10-22T04:51:32.655Z,117.30
2022-10-22T04:53:59.821Z,182.43
2022-10-22T04:56:29.930Z,163.02
2022-10-22T04:58:58.056Z,115.18
2022-10-22T05:01:31.396Z,196.23
2022-10-22T05:04:01.664Z,186.00
2022-10-22T05:06:30.937Z,134.30
2022-10-22T05:09:01.371Z,133.85
2022-10-22T05:11:31.455Z,100.22
2022-10-22T05:14:00.938Z,173.73
2022-10-22T05:16:29.685Z,103.37
2022-10-22T05:18:58.926Z,313.05
2022-10-22T05:21:26.574Z,347.58
2022-10-22T05:23:55.257Z,206.55
2022-10-22T05:26:24.184Z,192.13
2022-10-22T05:28:52.215Z,179.52
2022-10-22T05:31:20.465Z,232.20
2022-10-22T05:33:48.175Z,215.00
2022-10-22T05:36:18.379Z,157.85
2022-10-22T05:38:46.332Z,321.63
2022-10-22T05:41:17.824Z,275.58
2022-10-22T05:43:45.288Z,189.07
2022-10-22T05:46:22.439Z,127.00
2022-10-22T05:48:55.687Z,252.32
2022-10-22T05:51:24.716Z,235.25
2022-10-22T05:53:57.655Z,260.35
2022-10-22T05:56:26.382Z,323.83
2022-10-22T05:58:54.407Z,230.07
2022-10-22T06:01:30.197Z,143.75
2022-10-22T06:03:59.665Z,237.20
2022-10-22T06:06:34.423Z,325.48
2022-10-22T06:09:11.737Z,248.85
2022-10-22T06:11:39.418Z,115.35
2022-10-22T06:14:06.584Z,286.85
2022-10-22T06:16:34.084Z,282.95
2022-10-22T06:19:04.424Z,312.30
2022-10-22T06:24:00.228Z,346.08
2022-10-22T06:26:27.542Z,270.65
2022-10-22T06:28:56.605Z,178.40
2022-10-22T06:31:27.302Z,126.50
2022-10-22T06:33:55.024Z,170.15
2022-10-22T06:36:24.067Z,134.80
2022-10-22T06:38:55.686Z,142.93
2022-10-22T06:41:27.068Z,95.85
2022-10-22T06:43:57.808Z,187.93
2022-10-22T06:46:26.323Z,93.25
2022-10-22T06:48:59.087Z,96.95
2022-10-22T06:51:27.950Z,105.93
2022-10-22T06:53:57.053Z,202.98
2022-10-22T06:56:27.384Z,144.07
2022-10-22T07:01:25.881Z,201.75
2022-10-22T07:03:54.466Z,206.98
2022-10-22T07:06:24.448Z,224.45
2022-10-22T07:08:52.683Z,171.38
2022-10-22T07:11:40.695Z,196.13
2022-10-22T07:14:08.068Z,171.05
2022-10-22T07:16:35.417Z,130.30
2022-10-22T07:19:03.948Z,138.43
2022-10-22T07:21:31.988Z,121.63
2022-10-22T07:23:59.661Z,157.75
2022-10-22T07:26:31.312Z,122.50
2022-10-22T07:29:00.094Z,194.30
2022-10-22T07:31:27.695Z,189.57
2022-10-22T07:33:54.814Z,125.75
2022-10-22T07:36:22.454Z,104.93
2022-10-22T07:38:55.754Z,128.65
2022-10-22T07:41:23.936Z,143.05
2022-10-22T07:43:51.130Z,126.85
2022-10-22T07:46:18.700Z,151.50
2022-10-22T07:48:46.288Z,130.05
2022-10-22T07:51:16.005Z,136.77
2022-10-22T07:53:43.495Z,146.00
2022-10-22T07:56:11.064Z,78.60
2022-10-22T07:58:38.226Z,147.48
2022-10-22T08:01:08.252Z,148.45
2022-10-22T08:03:35.855Z,99.80
2022-10-22T08:06:04.129Z,149.15
2022-10-22T08:08:31.950Z,118.80
2022-10-22T08:11:00.853Z,91.30
2022-10-22T08:13:30.924Z,167.27
2022-10-22T08:16:00.534Z,85.03
2022-10-22T08:18:28.217Z,128.00
2022-10-22T08:20:55.795Z,110.30
2022-10-22T08:23:26.071Z,110.35
2022-10-22T08:25:56.816Z,125.57
2022-10-22T08:28:24.218Z,107.18
2022-10-22T08:30:51.496Z,79.63
2022-10-22T08:33:18.814Z,88.53
2022-10-22T08:35:53.576Z,130.48
2022-10-22T08:38:21.308Z,119.68
2022-10-22T08:40:53.419Z,184.95
2022-10-22T08:43:47.075Z,155.95
2022-10-22T08:46:38.765Z,235.48
2022-10-22T08:49:13.153Z,216.45
2022-10-22T08:51:40.846Z,102.47
2022-10-22T08:54:28.378Z,258.17
2022-10-22T08:57:18.799Z,124.13
2022-10-22T09:02:48.693Z,141.95
2022-10-22T09:05:27.657Z,171.30
2022-10-22T09:07:55.895Z,179.25
2022-10-22T09:10:28.329Z,126.75
2022-10-22T09:12:55.864Z,130.32
2022-10-22T09:15:23.204Z,189.75
2022-10-22T09:18:08.575Z,178.93
2022-10-22T09:20:47.204Z,176.52
2022-10-22T09:23:23.177Z,181.50
2022-10-22T09:25:53.024Z,163.40
2022-10-22T09:28:20.225Z,210.88
2022-10-22T09:30:47.692Z,140.52
2022-10-22T09:33:24.776Z,175.75
2022-10-22T09:36:03.966Z,134.35
2022-10-22T09:38:34.372Z,171.90
2022-10-22T09:43:32.754Z,191.63
2022-10-22T09:46:06.374Z,140.07
2022-10-22T09:48:41.667Z,174.93
2022-10-22T09:51:20.736Z,140.15
2022-10-22T09:54:00.376Z,147.38
2022-10-22T09:56:36.376Z,149.18
2022-10-22T09:59:04.026Z,163.10
2022-10-22T10:01:41.185Z,116.50
2022-10-22T10:04:11.055Z,126.25
2022-10-22T10:06:40.705Z,155.27
2022-10-22T10:09:20.056Z,126.43
2022-10-22T10:11:57.493Z,177.25
2022-10-22T10:14:50.593Z,103.03
2022-10-22T10:18:01.026Z,124.80
2022-10-22T10:20:52.545Z,139.73
2022-10-22T10:23:41.416Z,119.95
2022-10-22T10:26:19.734Z,97.68
2022-10-22T10:28:46.781Z,137.30
2022-10-22T10:31:33.264Z,128.63
2022-10-22T10:34:40.853Z,123.75
2022-10-22T10:37:25.280Z,123.60
2022-10-22T10:40:11.028Z,150.30
2022-10-22T10:43:10.106Z,155.18
2022-10-22T10:45:56.015Z,165.63
2022-10-22T10:48:47.327Z,159.95
2022-10-22T10:51:31.263Z,110.20
2022-10-22T10:54:01.936Z,92.03
2022-10-22T10:56:51.017Z,134.93
2022-10-22T10:59:39.485Z,130.73
2022-10-22T11:02:28.337Z,197.30
2022-10-22T11:05:15.320Z,104.38
2022-10-22T11:07:50.981Z,108.13
2022-10-22T11:10:51.014Z,130.77
2022-10-22T11:13:37.579Z,182.45
2022-10-22T11:16:21.418Z,135.82
2022-10-22T11:19:15.523Z,156.88
2022-10-22T11:22:08.654Z,145.30
2022-10-22T11:24:52.454Z,142.35
2022-10-22T11:27:30.369Z,161.18
2022-10-22T11:30:19.253Z,177.55
2022-10-22T11:32:55.477Z,109.43
2022-10-22T11:35:26.795Z,161.68
2022-10-22T11:37:57.111Z,124.25
2022-10-22T11:43:05.678Z,148.05
2022-10-22T11:45:39.778Z,183.50
2022-10-22T11:48:19.136Z,157.15
2022-10-22T11:50:48.664Z,141.32
2022-10-22T11:53:21.347Z,150.40
2022-10-22T11:55:51.776Z,114.00
2022-10-22T11:58:44.996Z,208.18
2022-10-22T12:01:12.128Z,151.32
2022-10-22T12:03:53.265Z,133.90
2022-10-22T12:06:24.564Z,170.20
2022-10-22T12:08:54.806Z,127.10
2022-10-22T12:14:30.253Z,129.73
2022-10-22T12:17:10.116Z,78.55
2022-10-22T12:19:47.724Z,93.07
2022-10-22T12:22:26.582Z,84.47
2022-10-22T12:24:55.749Z,75.13
2022-10-22T12:27:30.425Z,121.20
2022-10-22T12:29:59.965Z,56.42
2022-10-22T12:32:36.375Z,124.00
2022-10-22T12:35:09.564Z,55.75
2022-10-22T12:37:38.089Z,80.63
2022-10-22T12:40:23.614Z,66.72
2022-10-22T12:43:21.344Z,47.55
2022-10-22T12:45:50.897Z,104.88
2022-10-22T12:48:39.499Z,45.53
2022-10-22T12:51:09.865Z,47.83
2022-10-22T12:56:22.618Z,117.63
2022-10-22T12:58:58.106Z,43.20
2022-10-22T13:01:28.059Z,90.10
2022-10-22T13:04:29.009Z,46.85
2022-10-22T13:07:18.269Z,71.32
2022-10-22T13:09:58.943Z,35.40
2022-10-22T13:12:28.674Z,44.03
2022-10-22T13:14:55.885Z,59.17
2022-10-22T13:17:41.421Z,34.22
2022-10-22T13:20:27.015Z,39.83
2022-10-22T13:23:00.476Z,53.50
2022-10-22T13:25:30.646Z,51.17
2022-10-22T13:28:04.538Z,42.08
2022-10-22T13:30:37.583Z,63.08
2022-10-22T13:33:18.274Z,61.28
2022-10-22T13:35:45.654Z,32.30
2022-10-22T13:38:19.985Z,41.63
2022-10-22T13:40:48.097Z,65.32
2022-10-22T13:43:16.274Z,67.75
2022-10-22T13:45:47.817Z,39.88
2022-10-22T13:48:22.115Z,35.13
2022-10-22T13:50:50.544Z,27.63
2022-10-22T13:53:26.535Z,32.75
2022-10-22T13:55:53.855Z,22.80
2022-10-22T13:58:26.101Z,31.33
2022-10-22T14:00:57.399Z,38.33
2022-10-22T14:03:34.986Z,21.33
2022-10-22T14:06:02.402Z,33.85
2022-10-22T14:08:29.864Z,27.98
2022-10-22T14:10:57.338Z,41.45
2022-10-22T14:13:24.555Z,50.10
2022-10-22T14:15:53.047Z,46.22
2022-10-22T14:18:31.928Z,56.50
2022-10-22T14:21:10.647Z,46.75
2022-10-22T14:23:37.996Z,52.25
2022-10-22T14:26:07.414Z,46.80
2022-10-22T14:28:41.292Z,50.38
2022-10-22T14:31:13.535Z,64.50
2022-10-22T14:33:41.280Z,39.90
2022-10-22T14:36:13.029Z,50.70
2022-10-22T14:38:40.493Z,46.65
2022-10-22T14:41:24.934Z,57.38
2022-10-22T14:43:53.024Z,55.20
2022-10-22T14:46:20.394Z,62.25
2022-10-22T14:48:47.742Z,43.10
2022-10-22T14:51:20.617Z,43.90
2022-10-22T14:53:48.615Z,46.00
2022-10-22T14:56:18.477Z,46.67
2022-10-22T14:58:46.136Z,47.28
2022-10-22T15:01:13.464Z,41.85
2022-10-22T15:03:40.786Z,39.95
2022-10-22T15:06:08.473Z,41.13
2022-10-22T15:08:36.048Z,41.95
2022-10-22T15:11:04.660Z,44.42
2022-10-22T15:13:32.643Z,58.63
2022-10-22T15:16:00.337Z,49.33
2022-10-22T15:18:28.669Z,71.75
2022-10-22T15:21:01.347Z,56.40
2022-10-22T15:23:29.573Z,60.92
2022-10-22T15:25:57.607Z,56.45
2022-10-22T15:28:25.816Z,63.47
2022-10-22T15:30:55.060Z,65.60
2022-10-22T15:33:22.234Z,72.40
2022-10-22T15:35:49.516Z,54.42
2022-10-22T15:38:16.919Z,70.70
2022-10-22T15:40:44.093Z,89.93
2022-10-22T15:43:11.578Z,77.30
2022-10-22T15:45:39.469Z,59.92
2022-10-22T15:48:06.950Z,67.82
2022-10-22T15:50:38.475Z,70.90
2022-10-22T15:53:06.258Z,69.35
2022-10-22T15:55:33.473Z,98.63
2022-10-22T15:58:03.350Z,75.18
2022-10-22T16:00:30.817Z,65.68
2022-10-22T16:02:58.006Z,59.33
2022-10-22T16:05:27.693Z,56.88
2022-10-22T16:07:56.753Z,74.45
2022-10-22T16:10:24.826Z,73.03
2022-10-22T16:12:54.394Z,93.20
2022-10-22T16:15:21.577Z,61.35
2022-10-22T16:17:48.738Z,66.15
2022-10-22T16:20:16.012Z,68.07
2022-10-22T16:22:43.529Z,68.45
2022-10-22T16:25:10.781Z,71.13
2022-10-22T16:27:39.497Z,85.60
2022-10-22T16:30:07.238Z,69.53
2022-10-22T16:32:34.592Z,57.08
2022-10-22T16:35:02.054Z,68.18
2022-10-22T16:37:29.407Z,53.42
2022-10-22T16:39:56.768Z,63.58
2022-10-22T16:42:23.977Z,68.93
2022-10-22T16:44:51.363Z,68.05
2022-10-22T16:47:18.778Z,73.20
2022-10-22T16:49:46.137Z,75.25
2022-10-22T16:52:13.542Z,71.60
2022-10-22T16:54:40.814Z,72.28
2022-10-22T16:57:08.185Z,87.22
2022-10-22T16:59:35.458Z,72.43
2022-10-22T17:04:34.817Z,79.22
2022-10-22T17:07:01.977Z,85.47
2022-10-22T17:09:29.175Z,115.05
2022-10-22T17:11:56.496Z,83.75
2022-10-22T17:14:23.894Z,101.65
2022-10-22T17:16:54.186Z,113.63
2022-10-22T17:19:24.432Z,104.57
2022-10-22T17:21:53.785Z,108.40
2022-10-22T17:24:21.484Z,109.20
2022-10-22T17:26:48.894Z,95.82
2022-10-22T17:29:17.235Z,120.75
2022-10-22T17:31:44.564Z,141.10
2022-10-22T17:34:16.968Z,137.85
2022-10-22T17:36:45.088Z,138.95
2022-10-22T17:39:16.726Z,185.57
2022-10-22T17:41:44.036Z,181.68
2022-10-22T17:44:12.757Z,192.35
2022-10-22T17:46:40.009Z,196.07
2022-10-22T17:49:16.607Z,207.93
2022-10-22T17:51:44.207Z,135.25
2022-10-22T17:54:12.294Z,164.00
2022-10-22T17:56:43.115Z,159.07
2022-10-22T17:59:13.919Z,205.00
2022-10-22T18:01:45.773Z,178.43
2022-10-22T18:04:18.951Z,176.43
2022-10-22T18:06:47.692Z,189.55
2022-10-22T18:09:19.451Z,145.10
2022-10-22T18:11:48.657Z,129.35
2022-10-22T18:14:17.850Z,139.40
2022-10-22T18:16:46.368Z,172.85
2022-10-22T18:19:17.328Z,178.15
2022-10-22T18:21:45.306Z,179.00
2022-10-22T18:24:14.224Z,172.50
2022-10-22T18:26:41.969Z,191.82
2022-10-22T18:29:11.208Z,166.07
2022-10-22T18:31:38.600Z,181.45
2022-10-22T18:34:05.866Z,204.23
2022-10-22T18:36:33.093Z,229.77
2022-10-22T18:39:03.128Z,184.77
2022-10-22T18:41:32.048Z,162.32
2022-10-22T18:44:01.858Z,161.50
2022-10-22T18:46:30.357Z,166.07
2022-10-22T18:48:59.030Z,114.78
2022-10-22T18:51:30.581Z,160.35
2022-10-22T18:54:05.247Z,135.90
2022-10-22T18:56:33.132Z,139.30
2022-10-22T18:59:00.329Z,209.05
2022-10-22T19:01:29.681Z,150.65
2022-10-22T19:03:57.547Z,121.68
2022-10-22T19:06:34.412Z,130.27
2022-10-22T19:09:04.820Z,115.97
2022-10-22T19:11:32.955Z,158.75
2022-10-22T19:14:00.168Z,154.35
2022-10-22T19:16:28.708Z,133.10
2022-10-22T19:19:04.742Z,150.57
2022-10-22T19:21:32.368Z,125.07
2022-10-22T19:24:01.265Z,133.85
2022-10-22T19:26:30.012Z,137.50
2022-10-22T19:28:58.735Z,146.20
2022-10-22T19:31:27.531Z,126.22
2022-10-22T19:33:55.595Z,130.02
2022-10-22T19:36:29.035Z,115.97
2022-10-22T19:38:56.986Z,141.90
2022-10-22T19:41:26.409Z,127.68
2022-10-22T19:43:55.879Z,126.03
2022-10-22T19:46:24.285Z,124.60
2022-10-22T19:48:52.576Z,116.20
2022-10-22T19:51:22.616Z,141.32
2022-10-22T19:53:50.907Z,144.45
2022-10-22T19:56:21.415Z,156.38
2022-10-22T19:58:48.681Z,146.20
2022-10-22T20:01:17.866Z,149.55
2022-10-22T20:03:45.714Z,144.00
2022-10-22T20:06:15.888Z,123.22
2022-10-22T20:08:43.186Z,168.10
2022-10-22T20:11:16.488Z,150.80
2022-10-22T20:13:45.510Z,152.10
2022-10-22T20:16:18.820Z,162.15
2022-10-22T20:18:46.037Z,156.60
2022-10-22T20:21:15.217Z,213.05
2022-10-22T20:23:43.256Z,171.65
2022-10-22T20:26:10.687Z,170.18
2022-10-22T20:28:39.006Z,190.77
2022-10-22T20:31:15.937Z,211.52
2022-10-22T20:33:43.248Z,194.32
2022-10-22T20:36:16.446Z,224.32
2022-10-22T20:38:43.886Z,184.15
2022-10-22T20:41:14.306Z,161.40
2022-10-22T20:46:18.616Z,146.45
2022-10-22T20:48:46.336Z,190.93
2022-10-22T20:51:13.996Z,189.65
2022-10-22T20:53:41.354Z,156.27
2022-10-22T20:56:08.925Z,232.05
2022-10-22T20:58:36.425Z,151.65
2022-10-22T21:01:10.503Z,176.75
2022-10-22T21:03:38.247Z,154.75
2022-10-22T21:06:06.895Z,179.90
2022-10-22T21:08:34.313Z,171.43
2022-10-22T21:11:01.705Z,184.40
2022-10-22T21:13:32.079Z,195.63
2022-10-22T21:18:27.286Z,152.25
2022-10-22T21:20:54.530Z,202.23
2022-10-22T21:23:21.884Z,215.82
2022-10-22T21:25:56.767Z,186.63
2022-10-22T21:28:25.125Z,206.75
2022-10-22T21:30:52.465Z,194.32
2022-10-22T21:33:19.825Z,171.55
2022-10-22T21:35:52.424Z,211.90
2022-10-22T21:38:20.820Z,195.07
2022-10-22T21:40:48.074Z,166.25
2022-10-22T21:43:16.428Z,143.38
2022-10-22T21:45:44.114Z,151.38
2022-10-22T21:48:13.908Z,142.27
2022-10-22T21:50:42.567Z,147.45
2022-10-22T21:53:11.053Z,154.90
2022-10-22T21:55:42.024Z,188.38
2022-10-22T21:58:09.433Z,182.57
2022-10-22T22:00:36.905Z,176.63
2022-10-22T22:03:07.627Z,166.40
2022-10-22T22:05:34.850Z,138.90
2022-10-22T22:08:02.092Z,158.82
2022-10-22T22:10:30.224Z,153.60
2022-10-22T22:12:57.403Z,190.82
2022-10-22T22:15:24.584Z,128.88
2022-10-22T22:17:51.716Z,128.13
2022-10-22T22:20:19.142Z,128.82
2022-10-22T22:22:46.537Z,135.50
2022-10-22T22:25:13.753Z,132.98
2022-10-22T22:27:41.400Z,148.60
2022-10-22T22:30:09.686Z,171.00
2022-10-22T22:32:37.047Z,134.98
2022-10-22T22:35:04.507Z,154.88
2022-10-22T22:37:31.939Z,166.23
2022-10-22T22:39:59.215Z,195.25
2022-10-22T22:42:26.412Z,164.57
2022-10-22T22:44:53.679Z,158.43
2022-10-22T22:47:20.839Z,157.48
2022-10-22T22:49:48.040Z,133.48
2022-10-22T22:52:15.226Z,183.77
2022-10-22T22:54:42.480Z,160.50
2022-10-22T22:57:09.774Z,175.38
2022-10-22T22:59:37.084Z,140.35
2022-10-22T23:02:04.177Z,137.35
2022-10-22T23:04:31.828Z,146.27
2022-10-22T23:06:59.287Z,134.23
2022-10-22T23:09:26.490Z,193.68
2022-10-22T23:11:53.761Z,124.00
2022-10-22T23:14:21.062Z,152.45
2022-10-22T23:16:51.586Z,105.72
2022-10-22T23:19:21.675Z,118.80
2022-10-22T23:21:54.537Z,130.60
2022-10-22T23:24:25.888Z,146.40
2022-10-22T23:26:54.604Z,105.05
2022-10-22T23:29:23.264Z,151.45
2022-10-22T23:31:51.164Z,115.25
2022-10-22T23:34:22.066Z,184.65
2022-10-22T23:36:50.215Z,204.85
2022-10-22T23:39:19.897Z,230.70
2022-10-22T23:41:47.217Z,120.00
2022-10-22T23:44:14.972Z,203.65
2022-10-22T23:46:42.345Z,179.27
2022-10-22T23:49:11.067Z,227.10
2022-10-22T23:51:39.377Z,181.82
2022-10-22T23:54:10.835Z,181.65
2022-10-22T23:56:38.076Z,240.00
2022-10-22T23:59:05.986Z,145.50
